createdAt,value
2019-04-05T00:00:39.149Z,0.10
2019-04-05T00:03:09.732Z,0.10
2019-04-05T00:05:40.377Z,0.10
2019-04-05T00:08:11.245Z,0.10
2019-04-05T00:10:41.702Z,0.10
2019-04-05T00:13:12.292Z,0.10
2019-04-05T00:15:42.877Z,0.10
2019-04-05T00:18:13.448Z,-0.10
2019-04-05T00:20:43.983Z,-0.10
2019-04-05T00:23:14.513Z,-0.20
2019-04-05T00:25:44.911Z,-0.20
2019-04-05T00:28:15.488Z,-0.30
2019-04-05T00:30:45.937Z,-0.30
2019-04-05T00:33:16.515Z,-0.40
2019-04-05T00:35:47.013Z,-0.40
2019-04-05T00:38:17.500Z,-0.40
2019-04-05T00:40:48.104Z,-0.30
2019-04-05T00:43:18.619Z,-0.30
2019-04-05T00:45:49.063Z,-0.40
2019-04-05T00:48:19.568Z,-0.40
2019-04-05T00:50:50.732Z,-0.30
2019-04-05T00:53:21.561Z,-0.40
2019-04-05T00:55:52.094Z,-0.30
2019-04-05T00:58:22.559Z,-0.20
2019-04-05T01:00:52.987Z,-0.20
2019-04-05T01:03:23.409Z,-0.20
2019-04-05T01:05:54.132Z,-0.20
2019-04-05T01:08:24.599Z,-0.20
2019-04-05T01:10:55.014Z,-0.20
2019-04-05T01:13:25.800Z,-0.10
2019-04-05T01:15:58.228Z,-0.10
2019-04-05T01:18:28.684Z,-0.10
2019-04-05T01:21:02.374Z,-0.20
2019-04-05T01:23:34.459Z,-0.20
2019-04-05T01:26:05.123Z,-0.30
2019-04-05T01:28:35.769Z,-0.30
2019-04-05T01:31:06.436Z,-0.20
2019-04-05T01:33:37.069Z,-0.30
2019-04-05T01:36:07.723Z,-0.30
2019-04-05T01:38:38.124Z,-0.30
2019-04-05T01:41:08.809Z,-0.20
2019-04-05T01:43:39.332Z,-0.30
2019-04-05T01:46:09.914Z,-0.20
2019-04-05T01:48:40.389Z,-0.20
2019-04-05T01:51:10.810Z,-0.20
2019-04-05T01:53:41.557Z,-0.30
2019-04-05T01:56:12.068Z,-0.30
2019-04-05T01:58:42.508Z,-0.30
2019-04-05T02:01:12.976Z,-0.40
2019-04-05T02:03:43.569Z,-0.40
2019-04-05T02:06:14.258Z,-0.40
2019-04-05T02:08:44.693Z,-0.40
2019-04-05T02:11:15.164Z,-0.30
2019-04-05T02:13:45.654Z,-0.30
2019-04-05T02:16:16.239Z,-0.30
2019-04-05T02:18:47.813Z,-0.30
2019-04-05T02:21:18.523Z,-0.20
2019-04-05T02:23:49.048Z,-0.40
2019-04-05T02:26:19.542Z,-0.40
2019-04-05T02:28:50.022Z,-0.40
2019-04-05T02:31:20.518Z,-0.40
2019-04-05T02:33:50.986Z,-0.40
2019-04-05T02:36:21.475Z,-0.40
2019-04-05T02:38:52.127Z,-0.40
2019-04-05T02:41:24.435Z,-0.30
2019-04-05T02:43:56.898Z,-0.30
2019-04-05T02:46:29.372Z,-0.20
2019-04-05T02:49:02.377Z,-0.20
2019-04-05T02:51:33.825Z,-0.20
2019-04-05T02:54:04.895Z,-0.20
2019-04-05T02:56:36.508Z,-0.30
2019-04-05T02:59:07.491Z,-0.40
2019-04-05T03:01:38.467Z,-0.40
2019-04-05T03:04:09.034Z,-0.40
2019-04-05T03:06:40.318Z,-0.30
2019-04-05T03:09:11.298Z,-0.30
2019-04-05T03:11:43.577Z,-0.30
2019-04-05T03:14:14.778Z,-0.30
2019-04-05T03:16:48.510Z,-0.30
2019-04-05T03:19:21.941Z,-0.40
2019-04-05T03:21:56.384Z,-0.40
2019-04-05T03:24:30.247Z,-0.40
2019-04-05T03:27:25.320Z,-0.40
2019-04-05T03:29:56.489Z,-0.40
2019-04-05T03:32:27.690Z,-0.40
2019-04-05T03:34:58.765Z,-0.40
2019-04-05T03:37:29.495Z,-0.30
2019-04-05T03:40:00.660Z,-0.30
2019-04-05T03:42:31.906Z,-0.30
2019-04-05T03:45:02.625Z,-0.30
2019-04-05T03:47:34.524Z,-0.30
2019-04-05T03:50:05.654Z,-0.30
2019-04-05T03:52:36.115Z,-0.40
2019-04-05T03:55:06.868Z,-0.40
2019-04-05T03:57:37.481Z,-0.40
2019-04-05T04:00:08.154Z,-0.40
2019-04-05T04:02:38.762Z,-0.50
2019-04-05T04:05:09.274Z,-0.40
2019-04-05T04:07:39.767Z,-0.50
2019-04-05T04:10:15.637Z,-0.40
2019-04-05T04:12:46.386Z,-0.40
2019-04-05T04:15:17.045Z,-0.30
2019-04-05T04:17:48.003Z,-0.30
2019-04-05T04:20:40.524Z,-0.30
2019-04-05T04:23:12.313Z,-0.30
2019-04-05T04:25:43.512Z,-0.30
2019-04-05T04:28:14.045Z,-0.40
2019-04-05T04:30:45.426Z,-0.30
2019-04-05T04:33:17.969Z,-0.30
2019-04-05T04:35:49.075Z,-0.30
2019-04-05T04:38:20.705Z,-0.30
2019-04-05T04:40:51.292Z,-0.30
2019-04-05T04:43:22.368Z,-0.30
2019-04-05T04:45:54.154Z,-0.40
2019-04-05T04:48:25.363Z,-0.40
2019-04-05T04:50:56.178Z,-0.40
2019-04-05T04:53:27.354Z,-0.40
2019-04-05T04:55:57.972Z,-0.40
2019-04-05T04:58:29.153Z,-0.40
2019-04-05T05:00:59.523Z,-0.40
2019-04-05T05:03:30.246Z,-0.30
2019-04-05T05:06:00.630Z,-0.30
2019-04-05T05:08:31.119Z,-0.30
2019-04-05T05:11:13.706Z,-0.30
2019-04-05T05:13:34.335Z,-0.30
2019-04-05T05:16:05.080Z,-0.30
2019-04-05T05:18:35.776Z,-0.20
2019-04-05T05:21:06.875Z,-0.20
2019-04-05T05:23:37.405Z,-0.20
2019-04-05T05:26:07.929Z,-0.20
2019-04-05T05:28:38.811Z,-0.20
2019-04-05T05:31:09.543Z,-0.20
2019-04-05T05:33:40.370Z,-0.20
2019-04-05T05:36:10.823Z,-0.20
2019-04-05T05:38:54.139Z,-0.30
2019-04-05T05:41:34.775Z,-0.20
2019-04-05T05:44:08.647Z,-0.20
2019-04-05T05:46:39.142Z,-0.20
2019-04-05T05:49:09.796Z,-0.10
2019-04-05T05:51:40.744Z,-0.10
2019-04-05T05:54:11.285Z,0.00
2019-04-05T05:56:41.793Z,0.00
2019-04-05T05:59:12.290Z,0.10
2019-04-05T06:01:42.765Z,0.20
2019-04-05T06:07:25.674Z,0.40
2019-04-05T06:09:56.110Z,0.40
2019-04-05T06:12:27.691Z,0.30
2019-04-05T06:14:58.414Z,0.40
2019-04-05T06:17:28.911Z,0.40
2019-04-05T06:19:59.480Z,0.50
2019-04-05T06:22:30.140Z,0.50
2019-04-05T06:25:00.551Z,0.60
2019-04-05T06:27:31.070Z,0.60
2019-04-05T06:30:01.764Z,0.70
2019-04-05T06:32:46.121Z,0.80
2019-04-05T06:35:16.668Z,0.90
2019-04-05T06:37:47.309Z,1.00
2019-04-05T06:40:17.775Z,1.10
2019-04-05T06:42:48.365Z,1.30
2019-04-05T06:45:18.883Z,1.40
2019-04-05T06:47:49.339Z,1.40
2019-04-05T06:50:21.351Z,1.50
2019-04-05T06:52:51.974Z,1.60
2019-04-05T06:55:22.624Z,1.70
2019-04-05T06:57:58.907Z,1.80
2019-04-05T07:00:30.469Z,1.90
2019-04-05T07:03:01.159Z,2.10
2019-04-05T07:05:32.738Z,2.30
2019-04-05T07:08:05.905Z,2.40
2019-04-05T07:10:36.664Z,2.30
2019-04-05T07:13:08.286Z,2.40
2019-04-05T07:15:38.981Z,2.60
2019-04-05T07:18:09.559Z,2.80
2019-04-05T07:20:43.969Z,3.00
2019-04-05T07:23:14.585Z,3.00
2019-04-05T07:25:45.124Z,2.90
2019-04-05T07:28:15.650Z,2.70
2019-04-05T07:30:46.333Z,2.60
2019-04-05T07:33:16.867Z,2.60
2019-04-05T07:35:48.877Z,2.70
2019-04-05T07:38:19.416Z,2.90
2019-04-05T07:40:49.939Z,3.00
2019-04-05T07:43:21.748Z,3.10
2019-04-05T07:45:52.334Z,3.10
2019-04-05T07:48:24.674Z,3.40
2019-04-05T07:50:57.125Z,3.30
2019-04-05T07:53:27.605Z,3.20
2019-04-05T07:55:59.326Z,3.30
2019-04-05T07:58:29.936Z,3.40
2019-04-05T08:01:01.869Z,3.20
2019-04-05T08:03:32.455Z,3.10
2019-04-05T08:06:03.686Z,3.00
2019-04-05T08:08:49.576Z,3.10
2019-04-05T08:11:21.192Z,2.70
2019-04-05T08:13:54.501Z,2.70
2019-04-05T08:16:24.911Z,2.80
2019-04-05T08:18:58.157Z,2.90
2019-04-05T08:21:27.835Z,2.80
2019-04-05T08:24:06.966Z,2.70
2019-04-05T08:26:39.732Z,2.80
2019-04-05T08:29:10.316Z,2.80
2019-04-05T08:31:40.769Z,3.10
2019-04-05T08:34:12.301Z,3.00
2019-04-05T08:36:42.985Z,3.10
2019-04-05T08:39:15.768Z,2.90
2019-04-05T08:41:46.384Z,3.00
2019-04-05T08:44:16.997Z,3.10
2019-04-05T08:46:47.540Z,3.20
2019-04-05T08:49:18.195Z,3.00
2019-04-05T08:51:50.389Z,3.00
2019-04-05T08:54:31.966Z,3.20
2019-04-05T08:56:53.338Z,3.00
2019-04-05T08:59:23.770Z,2.80
2019-04-05T09:01:54.361Z,2.70
2019-04-05T09:04:25.015Z,2.80
2019-04-05T09:06:55.529Z,2.90
2019-04-05T09:09:25.975Z,3.10
2019-04-05T09:11:56.505Z,3.10
2019-04-05T09:14:27.016Z,3.20
2019-04-05T09:16:57.606Z,3.40
2019-04-05T09:19:28.173Z,3.50
2019-04-05T09:21:58.824Z,3.30
2019-04-05T09:24:30.972Z,3.20
2019-04-05T09:27:05.867Z,3.40
2019-04-05T09:29:38.109Z,3.30
2019-04-05T09:32:10.557Z,3.10
2019-04-05T09:34:41.333Z,3.20
2019-04-05T09:37:14.208Z,3.20
2019-04-05T09:39:44.875Z,3.30
2019-04-05T09:42:16.813Z,3.60
2019-04-05T09:44:47.335Z,4.00
2019-04-05T09:47:21.771Z,3.70
2019-04-05T09:49:54.000Z,3.60
2019-04-05T09:52:40.138Z,3.40
2019-04-05T09:55:01.864Z,3.30
2019-04-05T09:57:34.623Z,3.30
2019-04-05T10:00:14.385Z,3.40
2019-04-05T10:02:47.135Z,3.40
2019-04-05T10:05:19.732Z,3.10
2019-04-05T10:07:55.118Z,3.00
2019-04-05T10:10:22.907Z,3.10
2019-04-05T10:12:54.170Z,3.10
2019-04-05T10:15:24.691Z,3.00
2019-04-05T10:17:55.757Z,3.30
2019-04-05T10:20:26.330Z,3.40
2019-04-05T10:22:56.911Z,3.60
2019-04-05T10:25:27.404Z,3.90
2019-04-05T10:27:57.889Z,3.80
2019-04-05T10:30:29.542Z,3.80
2019-04-05T10:33:06.071Z,3.70
2019-04-05T10:35:36.595Z,4.00
2019-04-05T10:38:07.140Z,4.10
2019-04-05T10:40:37.724Z,4.20
2019-04-05T10:43:08.260Z,4.20
2019-04-05T10:48:35.585Z,4.70
2019-04-05T10:51:06.266Z,4.70
2019-04-05T10:53:36.722Z,4.40
2019-04-05T10:56:07.206Z,4.30
2019-04-05T10:58:37.801Z,4.30
2019-04-05T11:01:08.435Z,4.00
2019-04-05T11:03:39.076Z,3.70
2019-04-05T11:06:10.358Z,3.70
2019-04-05T11:08:42.400Z,3.70
2019-04-05T11:11:16.041Z,3.70
2019-04-05T11:13:46.692Z,3.80
2019-04-05T11:16:17.351Z,3.80
2019-04-05T11:18:48.021Z,3.80
2019-04-05T11:21:20.191Z,4.00
2019-04-05T11:23:50.879Z,4.20
2019-04-05T11:26:21.570Z,4.10
2019-04-05T11:28:54.892Z,4.20
2019-04-05T11:31:25.661Z,4.30
2019-04-05T11:33:56.204Z,4.30
2019-04-05T11:36:26.886Z,4.50
2019-04-05T11:38:57.436Z,4.40
2019-04-05T11:41:28.775Z,4.30
2019-04-05T11:44:01.372Z,4.40
2019-04-05T11:46:32.109Z,4.40
2019-04-05T11:49:03.728Z,4.30
2019-04-05T11:51:34.942Z,4.00
2019-04-05T11:54:05.685Z,4.00
2019-04-05T11:56:36.157Z,4.20
2019-04-05T11:59:09.921Z,4.20
2019-04-05T12:02:05.225Z,4.10
2019-04-05T12:04:35.747Z,4.10
2019-04-05T12:07:06.170Z,3.90
2019-04-05T12:09:37.482Z,4.00
2019-04-05T12:12:07.903Z,4.00
2019-04-05T12:14:38.475Z,4.10
2019-04-05T12:17:09.809Z,4.10
2019-04-05T12:19:40.573Z,4.30
2019-04-05T12:22:11.103Z,4.60
2019-04-05T12:24:41.706Z,4.60
2019-04-05T12:27:12.255Z,4.50
2019-04-05T12:29:42.811Z,4.40
2019-04-05T12:32:15.748Z,4.20
2019-04-05T12:34:45.747Z,4.20
2019-04-05T12:37:18.123Z,4.40
2019-04-05T12:39:50.256Z,4.40
2019-04-05T12:42:20.679Z,4.30
2019-04-05T12:44:51.392Z,4.40
2019-04-05T12:47:21.941Z,4.60
2019-04-05T12:49:52.417Z,4.70
2019-04-05T12:52:27.330Z,4.80
2019-04-05T12:54:55.311Z,4.80
2019-04-05T12:57:27.778Z,5.00
2019-04-05T12:59:57.963Z,4.90
2019-04-05T13:02:33.902Z,5.10
2019-04-05T13:05:00.528Z,5.20
2019-04-05T13:07:30.952Z,5.40
2019-04-05T13:10:01.424Z,5.60
2019-04-05T13:12:33.639Z,5.90
2019-04-05T13:15:12.319Z,6.00
2019-04-05T13:17:36.532Z,6.10
2019-04-05T13:20:09.207Z,6.20
2019-04-05T13:22:39.785Z,5.90
2019-04-05T13:25:11.029Z,6.00
2019-04-05T13:27:42.255Z,5.70
2019-04-05T13:30:13.737Z,5.50
2019-04-05T13:32:45.770Z,5.60
2019-04-05T13:35:16.931Z,5.30
2019-04-05T13:37:47.743Z,5.20
2019-04-05T13:40:18.311Z,4.90
2019-04-05T13:42:48.950Z,4.70
2019-04-05T13:45:19.417Z,4.80
2019-04-05T13:47:50.008Z,5.00
2019-04-05T13:50:20.493Z,5.20
2019-04-05T13:52:51.071Z,5.20
2019-04-05T13:55:21.505Z,4.90
2019-04-05T13:57:52.007Z,5.20
2019-04-05T14:00:22.682Z,5.30
2019-04-05T14:02:53.367Z,5.50
2019-04-05T14:05:27.228Z,5.80
2019-04-05T14:08:09.755Z,6.00
2019-04-05T14:10:35.371Z,6.10
2019-04-05T14:13:09.977Z,6.40
2019-04-05T14:15:42.436Z,6.40
2019-04-05T14:18:15.338Z,6.60
2019-04-05T14:20:45.221Z,6.60
2019-04-05T14:23:15.691Z,6.60
2019-04-05T14:25:47.050Z,6.40
2019-04-05T14:28:17.533Z,6.20
2019-04-05T14:30:48.058Z,5.90
2019-04-05T14:33:24.497Z,5.80
2019-04-05T14:35:54.663Z,5.90
2019-04-05T14:38:26.023Z,6.10
2019-04-05T14:40:56.575Z,6.10
2019-04-05T14:43:26.993Z,5.90
2019-04-05T14:45:57.632Z,5.60
2019-04-05T14:48:31.703Z,5.50
2019-04-05T14:51:10.649Z,5.70
2019-04-05T14:56:28.844Z,6.20
2019-04-05T14:59:00.037Z,6.20
2019-04-05T15:01:34.417Z,6.20
2019-04-05T15:04:06.057Z,6.10
2019-04-05T15:06:39.781Z,6.10
2019-04-05T15:09:14.487Z,6.10
2019-04-05T15:11:52.549Z,6.00
2019-04-05T15:14:50.132Z,6.00
2019-04-05T15:17:21.601Z,5.90
2019-04-05T15:19:57.391Z,5.90
2019-04-05T15:22:36.960Z,6.00
2019-04-05T15:28:10.141Z,5.90
2019-04-05T15:30:41.661Z,5.70
2019-04-05T15:33:13.451Z,5.70
2019-04-05T15:35:53.100Z,5.70
2019-04-05T15:38:26.125Z,5.70
2019-04-05T15:41:05.509Z,5.70
2019-04-05T15:43:39.918Z,5.60
2019-04-05T15:46:12.751Z,5.70
2019-04-05T15:51:27.002Z,5.60
2019-04-05T15:54:01.128Z,5.70
2019-04-05T15:56:33.248Z,5.80
2019-04-05T15:59:05.054Z,5.70
2019-04-05T16:02:04.428Z,5.80
2019-04-05T16:04:35.166Z,5.70
2019-04-05T16:07:05.792Z,5.80
2019-04-05T16:09:43.613Z,5.80
2019-04-05T16:12:16.462Z,5.90
2019-04-05T16:14:47.627Z,5.80
2019-04-05T16:17:18.072Z,5.70
2019-04-05T16:19:49.623Z,5.70
2019-04-05T16:22:30.812Z,5.60
2019-04-05T16:24:52.862Z,5.60
2019-04-05T16:27:32.158Z,5.50
2019-04-05T16:30:03.022Z,5.40
2019-04-05T16:32:33.616Z,5.20
2019-04-05T16:35:04.285Z,5.20
2019-04-05T16:37:34.934Z,5.00
2019-04-05T16:40:06.442Z,5.00
2019-04-05T16:42:38.877Z,4.70
2019-04-05T16:45:10.055Z,4.50
2019-04-05T16:47:40.907Z,4.40
2019-04-05T16:50:12.096Z,4.40
2019-04-05T16:52:45.107Z,4.40
2019-04-05T16:55:14.933Z,4.40
2019-04-05T16:57:45.552Z,4.40
2019-04-05T17:00:16.741Z,4.20
2019-04-05T17:02:47.201Z,4.10
2019-04-05T17:05:17.801Z,4.10
2019-04-05T17:07:48.347Z,4.00
2019-04-05T17:10:19.129Z,3.90
2019-04-05T17:12:49.821Z,4.00
2019-04-05T17:18:14.976Z,4.00
2019-04-05T17:20:45.597Z,4.00
2019-04-05T17:23:16.262Z,4.00
2019-04-05T17:25:48.238Z,3.90
2019-04-05T17:28:18.863Z,3.80
2019-04-05T17:30:49.433Z,3.70
2019-04-05T17:33:20.031Z,3.70
2019-04-05T17:35:50.741Z,3.60
2019-04-05T17:38:24.672Z,3.40
2019-04-05T17:41:01.778Z,3.30
2019-04-05T17:43:33.208Z,3.20
2019-04-05T17:46:03.693Z,3.00
2019-04-05T17:48:34.817Z,2.80
2019-04-05T17:51:05.613Z,2.70
2019-04-05T17:53:39.235Z,2.60
2019-04-05T17:56:11.381Z,2.60
2019-04-05T17:58:43.262Z,2.50
2019-04-05T18:01:14.114Z,2.50
2019-04-05T18:03:44.758Z,2.30
2019-04-05T18:06:15.388Z,2.20
2019-04-05T18:08:46.042Z,2.20
2019-04-05T18:11:17.584Z,2.10
2019-04-05T18:13:48.069Z,2.00
2019-04-05T18:16:21.397Z,1.90
2019-04-05T18:18:51.958Z,1.90
2019-04-05T18:21:30.528Z,1.80
2019-04-05T18:24:04.572Z,1.80
2019-04-05T18:26:36.218Z,1.70
2019-04-05T18:29:06.810Z,1.70
2019-04-05T18:31:38.429Z,1.50
2019-04-05T18:34:10.614Z,1.50
2019-04-05T18:36:43.061Z,1.50
2019-04-05T18:39:18.466Z,1.40
2019-04-05T18:41:50.648Z,1.30
2019-04-05T18:44:21.209Z,1.20
2019-04-05T18:46:51.888Z,1.10
2019-04-05T18:49:22.367Z,1.00
2019-04-05T18:51:54.539Z,1.10
2019-04-05T18:54:25.127Z,1.10
2019-04-05T18:56:56.912Z,1.10
2019-04-05T18:59:27.365Z,1.10
2019-04-05T19:01:57.985Z,1.10
2019-04-05T19:04:28.517Z,1.10
2019-04-05T19:06:59.004Z,1.10
2019-04-05T19:09:29.554Z,1.20
2019-04-05T19:12:00.111Z,1.20
2019-04-05T19:14:32.013Z,1.30
2019-04-05T19:17:03.322Z,1.30
2019-04-05T19:19:33.813Z,1.30
2019-04-05T19:22:04.388Z,1.20
2019-04-05T19:24:35.131Z,1.30
2019-04-05T19:27:05.940Z,1.30
2019-04-05T19:29:36.377Z,1.30
2019-04-05T19:50:00.607Z,1.10
2019-04-05T19:55:29.742Z,1.10
2019-04-05T19:58:03.832Z,1.10
2019-04-05T20:00:36.177Z,1.10
2019-04-05T20:03:08.018Z,1.00
2019-04-05T20:05:40.908Z,1.00
2019-04-05T20:08:11.463Z,1.10
2019-04-05T20:10:42.464Z,1.10
2019-04-05T20:13:13.059Z,1.00
2019-04-05T20:15:43.548Z,1.00
2019-04-05T20:18:16.143Z,1.00
2019-04-05T20:20:46.837Z,1.00
2019-04-05T20:23:17.833Z,1.00
2019-04-05T20:25:48.390Z,1.00
2019-04-05T20:28:18.902Z,1.00
2019-04-05T20:30:49.492Z,1.00
2019-04-05T20:33:20.382Z,1.00
2019-04-05T20:35:50.978Z,1.00
2019-04-05T20:38:23.828Z,1.00
2019-04-05T20:40:55.643Z,1.00
2019-04-05T20:43:26.588Z,1.00
2019-04-05T20:46:00.189Z,0.90
2019-04-05T20:48:30.794Z,0.90
2019-04-05T20:51:01.323Z,1.00
2019-04-05T20:53:32.405Z,1.00
2019-04-05T20:56:03.202Z,0.90
2019-04-05T20:58:34.029Z,0.90
2019-04-05T21:01:04.773Z,0.80
2019-04-05T21:03:35.557Z,0.80
2019-04-05T21:06:06.190Z,0.80
2019-04-05T21:08:39.313Z,0.80
2019-04-05T21:11:10.015Z,0.70
2019-04-05T21:13:44.164Z,0.70
2019-04-05T21:16:14.679Z,0.70
2019-04-05T21:18:45.285Z,0.80
2019-04-05T21:21:15.903Z,0.80
2019-04-05T21:23:46.482Z,0.80
2019-04-05T21:26:17.963Z,0.80
2019-04-05T21:28:48.812Z,0.80
2019-04-05T21:31:19.887Z,0.70
2019-04-05T21:33:50.325Z,0.70
2019-04-05T21:36:20.717Z,0.60
2019-04-05T21:38:57.648Z,0.60
2019-04-05T21:41:28.217Z,0.60
2019-04-05T21:43:58.789Z,0.50
2019-04-05T21:46:29.505Z,0.40
2019-04-05T21:49:00.044Z,0.40
2019-04-05T21:51:30.579Z,0.50
2019-04-05T21:54:01.057Z,0.50
2019-04-05T21:56:31.662Z,0.50
2019-04-05T21:59:02.138Z,0.50
2019-04-05T22:01:32.933Z,0.50
2019-04-05T22:04:03.569Z,0.40
2019-04-05T22:06:34.187Z,0.40
2019-04-05T22:09:08.128Z,0.40
2019-04-05T22:11:38.785Z,0.20
2019-04-05T22:14:09.284Z,0.30
2019-04-05T22:16:41.064Z,0.30
2019-04-05T22:19:11.614Z,0.30
2019-04-05T22:21:42.376Z,0.40
2019-04-05T22:24:12.990Z,0.40
2019-04-05T22:26:43.474Z,0.40
2019-04-05T22:29:13.934Z,0.40
2019-04-05T22:31:44.436Z,0.40
2019-04-05T22:34:14.878Z,0.40
2019-04-05T22:36:45.350Z,0.40
2019-04-05T22:39:15.827Z,0.40
2019-04-05T22:41:46.419Z,0.20
2019-04-05T22:44:16.917Z,0.20
2019-04-05T22:46:47.317Z,0.20
2019-04-05T22:49:17.872Z,0.20
2019-04-05T22:51:48.355Z,0.10
2019-04-05T22:54:18.922Z,0.10
2019-04-05T22:56:49.479Z,0.00
2019-04-05T22:59:19.928Z,0.00
2019-04-05T23:01:50.286Z,-0.10
2019-04-05T23:04:20.687Z,-0.10
2019-04-05T23:06:51.196Z,-0.10
2019-04-05T23:09:21.617Z,-0.20
2019-04-05T23:11:52.104Z,-0.20
2019-04-05T23:14:40.438Z,-0.10
2019-04-05T23:17:10.838Z,-0.10
2019-04-05T23:19:41.301Z,-0.20
2019-04-05T23:22:11.809Z,-0.20
2019-04-05T23:24:42.302Z,-0.10
2019-04-05T23:27:12.772Z,-0.20
2019-04-05T23:29:43.270Z,-0.30
2019-04-05T23:32:13.714Z,-0.40
2019-04-05T23:34:44.287Z,-0.30
2019-04-05T23:37:14.753Z,-0.30
2019-04-05T23:39:45.214Z,-0.40
2019-04-05T23:42:15.593Z,-0.40
2019-04-05T23:44:46.131Z,-0.30
2019-04-05T23:47:16.617Z,-0.30
2019-04-05T23:49:47.075Z,-0.30
2019-04-05T23:52:17.610Z,-0.20
2019-04-05T23:54:48.010Z,-0.20
2019-04-05T23:57:18.499Z,-0.20
2019-04-05T23:59:48.920Z,-0.10
